Time;durP1;ratioP1;P1;durP2;ratioP2;P2;SDS_P1;SDS_P2;PMS_P1;PMS_P2;Temp;Humidity;BMP_temperature;BMP_pressure;BME280_temperature;BME280_humidity;BME280_pressure;Samples;Min_cycle;Max_cycle;Signal;HPM_P1;HPM_P2
2022/03/18 00:02:22;;;;;;;9.02;4.40;;;-1.50;44.80;;;;;;5093608;28;19908;-78
2022/03/18 00:04:50;;;;;;;15.30;5.22;;;-1.60;45.40;;;;;;5089103;28;20098;-77
2022/03/18 00:07:16;;;;;;;14.18;6.78;;;-1.60;45.80;;;;;;5086973;28;20046;-79
2022/03/18 00:09:42;;;;;;;12.35;5.93;;;-1.70;46.20;;;;;;5074970;28;20496;-78
2022/03/18 00:12:10;;;;;;;13.27;7.22;;;-1.70;46.80;;;;;;5093249;28;20024;-80
2022/03/18 00:14:39;;;;;;;13.68;6.30;;;-1.70;47.10;;;;;;5075202;28;20501;-79
2022/03/18 00:17:05;;;;;;;19.90;7.38;;;-1.80;47.30;;;;;;5093395;28;20433;-79
2022/03/18 00:19:31;;;;;;;10.70;6.25;;;-1.80;47.60;;;;;;5093363;28;20044;-79
2022/03/18 00:22:01;;;;;;;17.00;7.50;;;-1.80;48.40;;;;;;5093755;28;20020;-78
2022/03/18 00:24:33;;;;;;;14.85;7.68;;;-1.90;48.10;;;;;;5094626;28;20012;-78
2022/03/18 00:27:00;;;;;;;16.20;6.55;;;-2.00;48.60;;;;;;5076549;28;20020;-79
2022/03/18 00:29:27;;;;;;;28.75;8.10;;;-2.00;48.70;;;;;;5100997;28;20020;-78
2022/03/18 00:31:53;;;;;;;11.55;7.28;;;-2.00;48.90;;;;;;5093369;28;20052;-78
2022/03/18 00:34:20;;;;;;;17.52;6.40;;;-2.00;49.10;;;;;;5093198;28;20032;-78
2022/03/18 00:36:46;;;;;;;14.10;6.60;;;-2.10;49.20;;;;;;5093065;28;20024;-79
2022/03/18 00:39:12;;;;;;;14.88;6.85;;;-2.10;49.40;;;;;;5092061;28;20031;-78
2022/03/18 00:41:37;;;;;;;24.33;8.60;;;-2.20;49.70;;;;;;5075799;28;20584;-78
2022/03/18 00:44:03;;;;;;;20.15;7.25;;;-2.20;50.00;;;;;;5072271;28;20107;-78
2022/03/18 00:46:29;;;;;;;19.13;7.75;;;-2.20;49.90;;;;;;5054486;28;20432;-79
2022/03/18 00:54:25;;;;;;;16.02;7.93;;;-2.30;50.50;;;;;;5072322;28;20048;-79
2022/03/18 00:56:51;;;;;;;20.00;7.22;;;-2.30;50.50;;;;;;5072362;28;20021;-80
2022/03/18 00:59:17;;;;;;;14.63;7.20;;;-2.30;50.70;;;;;;5072774;28;20071;-78
2022/03/18 01:01:43;;;;;;;19.67;7.40;;;-2.40;51.10;;;;;;5072014;28;20021;-79
2022/03/18 01:04:09;;;;;;;17.60;8.20;;;-2.40;51.40;;;;;;5072033;28;20104;-78
2022/03/18 01:06:35;;;;;;;16.95;7.57;;;-2.50;51.60;;;;;;5091218;28;20080;-79
2022/03/18 01:09:05;;;;;;;19.20;8.73;;;-2.50;51.70;;;;;;5092199;28;20070;-80
2022/03/18 01:11:31;;;;;;;20.15;7.78;;;-2.50;52.10;;;;;;5092198;28;20016;-80
2022/03/18 01:13:58;;;;;;;13.18;7.30;;;-2.50;52.10;;;;;;5092045;28;20044;-80
2022/03/18 01:16:23;;;;;;;20.70;9.23;;;-2.50;52.10;;;;;;5091971;28;20103;-78
2022/03/18 01:18:49;;;;;;;16.58;7.80;;;-2.50;52.40;;;;;;5092112;28;20103;-80
2022/03/18 01:21:15;;;;;;;17.67;8.23;;;-2.50;52.50;;;;;;5074185;28;20032;-80
2022/03/18 01:23:41;;;;;;;21.20;8.45;;;-2.50;52.60;;;;;;5091954;28;20020;-79
2022/03/18 01:26:06;;;;;;;18.08;8.95;;;-2.50;52.80;;;;;;5091911;28;20024;-80
2022/03/18 01:28:32;;;;;;;14.75;7.30;;;-2.50;52.80;;;;;;5091704;28;20127;-78
2022/03/18 01:30:58;;;;;;;18.50;8.32;;;-2.50;52.90;;;;;;5092001;28;20203;-78
2022/03/18 01:33:24;;;;;;;19.30;8.45;;;-2.60;53.00;;;;;;5073673;28;20024;-78
2022/03/18 01:35:50;;;;;;;21.80;8.32;;;-2.60;53.00;;;;;;5092076;28;20036;-78
2022/03/18 01:38:16;;;;;;;20.98;7.97;;;-2.60;53.50;;;;;;5092510;28;20035;-77
2022/03/18 01:40:42;;;;;;;22.35;8.00;;;-2.50;53.50;;;;;;5100271;28;20106;-78
2022/03/18 01:43:11;;;;;;;16.88;8.02;;;-2.50;53.40;;;;;;5092844;28;20051;-78
2022/03/18 01:45:38;;;;;;;22.08;8.48;;;-2.50;53.40;;;;;;5092483;28;20056;-78
2022/03/18 01:48:05;;;;;;;20.02;7.80;;;-2.40;53.50;;;;;;5094490;28;20048;-78
2022/03/18 01:50:32;;;;;;;24.73;8.50;;;-2.50;53.40;;;;;;5101566;28;20055;-77
2022/03/18 01:52:58;;;;;;;19.23;7.97;;;-2.50;53.60;;;;;;5095536;28;20451;-78
2022/03/18 01:55:24;;;;;;;24.13;8.18;;;-2.50;53.80;;;;;;5096062;28;20036;-80
2022/03/18 01:57:51;;;;;;;17.45;8.38;;;-2.60;53.90;;;;;;5096344;28;20055;-78
2022/03/18 02:00:21;;;;;;;16.05;7.80;;;-2.60;54.00;;;;;;5096123;28;20027;-78
2022/03/18 02:02:48;;;;;;;14.57;7.45;;;-2.60;54.00;;;;;;5095815;28;20370;-78
2022/03/18 02:05:14;;;;;;;22.33;8.63;;;-2.60;54.30;;;;;;5077358;28;20024;-79
2022/03/18 02:07:40;;;;;;;17.83;7.82;;;-2.70;54.30;;;;;;5096029;28;20035;-79
2022/03/18 02:10:07;;;;;;;18.42;8.32;;;-2.70;54.60;;;;;;5097800;28;20020;-79
2022/03/18 02:12:33;;;;;;;16.33;7.60;;;-2.70;54.60;;;;;;5102014;28;20020;-80
2022/03/18 02:14:59;;;;;;;19.67;7.90;;;-2.70;54.70;;;;;;5098109;28;20132;-78
2022/03/18 02:17:24;;;;;;;20.17;8.48;;;-2.70;54.70;;;;;;5096275;28;20069;-78
2022/03/18 02:19:50;;;;;;;18.52;7.75;;;-2.80;54.70;;;;;;5077456;28;20456;-79
2022/03/18 02:22:25;;;;;;;20.60;6.80;;;-2.80;54.80;;;;;;5095411;28;20462;-76
2022/03/18 02:24:55;;;;;;;19.98;7.57;;;-2.80;55.00;;;;;;5095691;28;20103;-76
2022/03/18 02:27:21;;;;;;;15.40;8.13;;;-2.80;55.10;;;;;;5095980;28;20024;-77
2022/03/18 02:29:47;;;;;;;16.70;7.60;;;-2.90;55.20;;;;;;5095402;28;20030;-76
2022/03/18 02:32:14;;;;;;;16.52;7.45;;;-2.90;55.20;;;;;;5077151;28;20042;-78
2022/03/18 02:34:41;;;;;;;20.80;7.97;;;-2.90;55.30;;;;;;5076858;28;20032;-78
2022/03/18 02:37:07;;;;;;;11.00;7.07;;;-2.90;55.20;;;;;;5095119;28;20020;-78
2022/03/18 02:39:34;;;;;;;10.03;7.00;;;-3.00;55.20;;;;;;5095099;28;20028;-77
2022/03/18 02:42:00;;;;;;;16.92;6.57;;;-3.00;55.40;;;;;;5091575;28;20283;-78
2022/03/18 02:44:26;;;;;;;13.50;7.00;;;-3.00;55.40;;;;;;5095201;28;20024;-78
2022/03/18 02:46:52;;;;;;;12.07;6.70;;;-3.10;55.50;;;;;;5094898;28;20081;-78
2022/03/18 02:49:19;;;;;;;20.52;8.07;;;-3.10;55.60;;;;;;5076190;28;20020;-78
2022/03/18 02:51:45;;;;;;;;;;;-3.10;55.70;;;;;;5103673;28;20028;-78
2022/03/18 02:54:12;;;;;;;10.27;6.15;;;-3.20;55.50;;;;;;5102357;28;19908;-78
2022/03/18 02:56:38;;;;;;;14.65;6.70;;;-3.20;55.70;;;;;;5098246;28;20107;-78
2022/03/18 02:59:04;;;;;;;12.45;7.40;;;-3.20;55.80;;;;;;5073467;28;20075;-79
2022/03/18 03:01:30;;;;;;;11.70;6.35;;;-3.20;55.80;;;;;;5074671;28;20367;-80
2022/03/18 03:03:57;;;;;;;15.10;7.82;;;-3.20;55.80;;;;;;5092777;28;20056;-78
2022/03/18 03:09:08;;;;;;;11.27;6.65;;;-3.10;55.70;;;;;;5094903;28;20062;-80
2022/03/18 03:11:34;;;;;;;13.43;5.97;;;-3.20;55.50;;;;;;5095546;28;20435;-78
2022/03/18 03:14:01;;;;;;;10.50;6.43;;;-3.10;55.70;;;;;;5076123;28;20060;-79
2022/03/18 03:16:26;;;;;;;9.18;6.07;;;-3.20;55.70;;;;;;5094496;28;20028;-79
2022/03/18 03:18:53;;;;;;;11.25;6.90;;;-3.20;55.60;;;;;;5094341;28;20530;-79
2022/03/18 03:21:19;;;;;;;16.38;9.50;;;-3.20;55.50;;;;;;5094447;28;20485;-78
2022/03/18 03:23:45;;;;;;;17.30;7.82;;;-3.20;55.50;;;;;;5076251;28;20024;-79
2022/03/18 03:26:12;;;;;;;14.88;6.57;;;-3.30;55.50;;;;;;5076254;28;20479;-80
2022/03/18 03:28:38;;;;;;;18.37;6.97;;;-3.20;55.60;;;;;;5094739;28;20532;-77
2022/03/18 03:31:04;;;;;;;11.23;7.07;;;-3.20;55.60;;;;;;5094465;28;20032;-78
2022/03/18 03:33:31;;;;;;;14.38;8.25;;;-3.20;55.50;;;;;;5094338;28;20443;-79
2022/03/18 03:35:57;;;;;;;13.63;7.13;;;-3.20;55.70;;;;;;5094277;28;20039;-78
2022/03/18 03:38:23;;;;;;;22.88;7.60;;;-3.20;55.30;;;;;;5095195;28;20020;-77
2022/03/18 03:40:50;;;;;;;14.63;6.80;;;-3.20;55.20;;;;;;5074620;28;20028;-78
2022/03/18 03:43:15;;;;;;;15.63;6.93;;;-3.20;55.30;;;;;;5074377;28;20163;-78
2022/03/18 03:45:41;;;;;;;9.88;5.60;;;-3.20;55.40;;;;;;5055639;28;20082;-78
2022/03/18 03:48:07;;;;;;;15.02;9.38;;;-3.20;55.40;;;;;;5073857;28;20024;-78
2022/03/18 03:50:34;;;;;;;7.90;5.10;;;-3.20;56.00;;;;;;5055470;28;20028;-77
2022/03/18 03:53:01;;;;;;;13.50;6.93;;;-3.20;55.20;;;;;;5073267;28;20415;-78
2022/03/18 03:55:27;;;;;;;11.40;7.57;;;-3.20;55.10;;;;;;5073601;28;20040;-78
2022/03/18 03:57:53;;;;;;;18.33;6.32;;;-3.10;55.10;;;;;;5055249;28;20463;-79
2022/03/18 04:00:19;;;;;;;15.50;6.88;;;-3.10;55.00;;;;;;5074333;28;20115;-78
2022/03/18 04:02:45;;;;;;;16.38;5.80;;;-3.10;54.80;;;;;;5075043;28;20045;-77
2022/03/18 04:05:12;;;;;;;16.00;7.07;;;-3.10;54.70;;;;;;5082457;28;20329;-78
2022/03/18 04:07:40;;;;;;;11.63;6.63;;;-3.00;54.60;;;;;;5075574;28;20118;-79
2022/03/18 04:10:08;;;;;;;12.27;6.40;;;-3.00;54.60;;;;;;5093911;28;20388;-77
2022/03/18 04:12:35;;;;;;;9.50;7.13;;;-2.90;54.50;;;;;;5093922;28;20035;-79
2022/03/18 04:15:05;;;;;;;19.42;7.18;;;-2.90;54.50;;;;;;5093079;28;20048;-80
2022/03/18 04:17:45;;;;;;;17.70;7.72;;;-2.80;54.60;;;;;;5074999;28;20120;-79
2022/03/18 04:20:15;;;;;;;11.30;6.43;;;-2.60;54.50;;;;;;5093072;28;20106;-79
2022/03/18 04:22:41;;;;;;;14.73;7.18;;;-2.40;54.20;;;;;;5092819;28;20024;-81
2022/03/18 04:25:08;;;;;;;13.35;6.72;;;-2.20;53.80;;;;;;5074830;28;20115;-80
2022/03/18 04:27:34;;;;;;;16.50;8.25;;;-1.80;53.40;;;;;;5093155;28;20422;-80
2022/03/18 04:30:00;;;;;;;11.25;7.28;;;-1.60;52.20;;;;;;5093600;28;20043;-79
2022/03/18 04:32:26;;;;;;;22.77;8.98;;;-1.80;51.80;;;;;;5075895;28;20484;-79
2022/03/18 04:34:51;;;;;;;14.05;7.47;;;-1.90;52.00;;;;;;5074586;28;20489;-79
2022/03/18 04:37:17;;;;;;;17.38;7.65;;;-2.10;52.20;;;;;;5092709;28;20520;-80
2022/03/18 04:39:43;;;;;;;14.75;7.50;;;-2.20;52.50;;;;;;5092703;28;20031;-79
2022/03/18 04:42:09;;;;;;;13.90;7.40;;;-2.40;52.80;;;;;;5092901;28;20420;-79
2022/03/18 04:44:35;;;;;;;16.25;6.90;;;-2.40;53.00;;;;;;5092832;28;20099;-78
2022/03/18 04:47:01;;;;;;;15.20;7.38;;;-2.50;53.00;;;;;;5092858;28;20032;-78
2022/03/18 04:49:27;;;;;;;18.98;10.02;;;-2.50;53.20;;;;;;5092919;28;20028;-78
2022/03/18 04:51:53;;;;;;;8.85;5.43;;;-2.50;53.90;;;;;;5092340;28;20496;-78
2022/03/18 04:54:19;;;;;;;11.15;6.80;;;-2.50;53.50;;;;;;5092319;28;20095;-79
2022/03/18 04:59:29;;;;;;;13.18;7.70;;;-2.50;53.50;;;;;;5092715;28;20027;-80
2022/03/18 05:01:55;;;;;;;15.57;7.45;;;-2.50;53.50;;;;;;5092265;28;20412;-79
2022/03/18 05:04:20;;;;;;;17.67;7.63;;;-2.50;53.40;;;;;;5092116;28;20078;-79
2022/03/18 05:06:47;;;;;;;13.70;7.13;;;-2.50;53.40;;;;;;5092136;28;20031;-79
2022/03/18 05:09:13;;;;;;;13.15;6.45;;;-2.50;53.40;;;;;;5092374;28;20021;-78
2022/03/18 05:11:38;;;;;;;16.40;7.95;;;-2.50;53.30;;;;;;5074397;28;20051;-78
2022/03/18 05:14:05;;;;;;;13.32;7.03;;;-2.40;53.30;;;;;;5095439;28;20107;-80
2022/03/18 05:16:31;;;;;;;10.68;6.05;;;-2.40;53.20;;;;;;5101406;28;20357;-80
2022/03/18 05:18:58;;;;;;;18.02;7.50;;;-2.40;53.10;;;;;;5092863;28;20020;-78
2022/03/18 05:21:24;;;;;;;14.75;7.47;;;-2.30;53.10;;;;;;5076617;28;20024;-82
2022/03/18 05:23:50;;;;;;;18.70;7.00;;;-2.30;53.10;;;;;;5073368;28;20597;-79
2022/03/18 05:26:16;;;;;;;12.68;6.50;;;-2.30;53.00;;;;;;5073615;28;20036;-79
2022/03/18 05:28:42;;;;;;;9.77;6.75;;;-2.20;53.00;;;;;;5054948;28;20085;-81
2022/03/18 05:31:09;;;;;;;15.63;7.78;;;-2.10;52.80;;;;;;5072060;28;20033;-77
2022/03/18 05:33:35;;;;;;;21.33;8.93;;;-2.10;52.70;;;;;;5072183;28;20147;-80
2022/03/18 05:36:00;;;;;;;17.25;7.57;;;-2.00;52.50;;;;;;5072313;28;20223;-81
2022/03/18 05:38:26;;;;;;;12.48;7.40;;;-2.00;52.20;;;;;;5071727;28;20123;-80
2022/03/18 05:40:53;;;;;;;18.58;7.68;;;-1.90;52.10;;;;;;5069698;28;20033;-81
2022/03/18 05:43:25;;;;;;;14.45;7.40;;;-1.90;52.00;;;;;;5072243;28;20367;-82
2022/03/18 05:45:51;;;;;;;18.10;8.13;;;-1.90;51.90;;;;;;5072578;28;20389;-79
2022/03/18 05:48:16;;;;;;;13.60;7.18;;;-1.80;51.80;;;;;;5055339;28;20021;-80
2022/03/18 05:50:42;;;;;;;16.17;7.47;;;-1.80;51.80;;;;;;5071840;28;20055;-81
2022/03/18 05:53:09;;;;;;;10.90;7.50;;;-1.70;51.50;;;;;;5073144;28;20492;-81
2022/03/18 05:58:21;;;;;;;11.43;8.15;;;-1.60;51.40;;;;;;5072557;28;20079;-81
2022/03/18 06:00:48;;;;;;;22.23;7.97;;;-1.60;51.50;;;;;;5092271;28;20020;-80
2022/03/18 06:03:14;;;;;;;15.75;7.60;;;-1.60;51.40;;;;;;5073213;28;20059;-81
2022/03/18 06:05:42;;;;;;;12.90;6.80;;;-1.50;52.00;;;;;;5091456;28;20842;-79
2022/03/18 06:13:41;;;;;;;19.27;8.93;;;-1.40;51.10;;;;;;5077691;28;20040;-81
2022/03/18 06:16:07;;;;;;;15.68;7.88;;;-1.30;50.90;;;;;;5071596;28;20150;-80
2022/03/18 06:18:33;;;;;;;16.45;8.70;;;-1.30;50.80;;;;;;5070919;28;20016;-79
2022/03/18 06:20:59;;;;;;;13.80;7.57;;;-1.20;50.70;;;;;;5054226;28;20449;-81
2022/03/18 06:23:25;;;;;;;12.90;8.38;;;-1.20;50.70;;;;;;5072397;28;20036;-78
2022/03/18 06:25:51;;;;;;;15.65;8.98;;;-1.10;50.60;;;;;;5097233;28;20032;-82
2022/03/18 06:28:17;;;;;;;13.75;9.32;;;-1.10;50.50;;;;;;5103313;28;20076;-79
2022/03/18 06:30:44;;;;;;;10.52;6.75;;;-1.00;50.50;;;;;;5095652;28;20028;-79
2022/03/18 06:33:10;;;;;;;24.90;8.63;;;-1.00;50.40;;;;;;5079620;28;20032;-79
2022/03/18 06:35:36;;;;;;;24.73;8.20;;;-1.00;50.40;;;;;;5096853;28;20122;-83
2022/03/18 06:38:02;;;;;;;17.55;8.50;;;-0.90;50.50;;;;;;5091224;28;20103;-79
2022/03/18 06:40:28;;;;;;;14.18;6.82;;;-0.90;50.40;;;;;;5082127;28;20119;-74
2022/03/18 06:42:54;;;;;;;18.02;8.88;;;-0.80;50.40;;;;;;5094483;28;20122;-80
2022/03/18 06:45:21;;;;;;;14.82;9.57;;;-0.80;50.20;;;;;;5092556;28;20591;-77
2022/03/18 06:47:47;;;;;;;;;;;-0.70;50.20;;;;;;5095258;28;20013;-79
2022/03/18 06:50:13;;;;;;;12.10;8.30;;;-0.70;50.20;;;;;;5094477;28;19904;-77
2022/03/18 06:52:39;;;;;;;16.23;8.02;;;-0.60;50.20;;;;;;5076166;28;20085;-77
2022/03/18 06:55:08;;;;;;;17.60;9.15;;;-0.60;50.20;;;;;;5076651;28;20085;-77
2022/03/18 06:57:34;;;;;;;19.83;8.65;;;-0.50;50.20;;;;;;5073133;28;20020;-78
2022/03/18 07:00:00;;;;;;;14.80;9.15;;;-0.40;50.00;;;;;;5073753;28;20036;-77
2022/03/18 07:02:26;;;;;;;20.30;10.23;;;-0.30;50.00;;;;;;5074076;28;20107;-76
2022/03/18 07:04:52;;;;;;;14.10;8.57;;;-0.30;49.60;;;;;;5078739;28;20035;-77
2022/03/18 07:07:18;;;;;;;21.42;8.07;;;-0.20;49.70;;;;;;5076493;28;20107;-79
2022/03/18 07:09:43;;;;;;;16.83;8.80;;;-0.10;49.60;;;;;;5094209;28;20052;-78
2022/03/18 07:12:09;;;;;;;16.65;8.88;;;0.00;49.40;;;;;;5093965;28;20020;-79
2022/03/18 07:14:36;;;;;;;16.35;9.02;;;0.10;49.00;;;;;;5094290;28;20077;-77
2022/03/18 07:19:46;;;;;;;13.05;7.55;;;0.30;48.80;;;;;;5094384;28;20397;-78
2022/03/18 07:22:12;;;;;;;13.70;7.80;;;0.40;48.70;;;;;;5094396;28;20047;-78
2022/03/18 07:24:37;;;;;;;19.67;9.07;;;0.50;48.40;;;;;;5095384;28;20050;-78
2022/03/18 07:27:03;;;;;;;16.92;9.25;;;0.60;48.20;;;;;;5094415;28;20016;-78
2022/03/18 07:29:29;;;;;;;19.30;8.95;;;0.60;48.20;;;;;;5093960;28;20024;-80
2022/03/18 07:31:55;;;;;;;15.50;9.95;;;0.90;48.10;;;;;;5094194;28;20028;-79
2022/03/18 07:34:24;;;;;;;12.55;7.70;;;1.80;47.80;;;;;;5075712;28;20467;-79
2022/03/18 07:36:50;;;;;;;16.52;7.60;;;3.60;45.80;;;;;;5076354;28;20509;-77
2022/03/18 07:39:16;;;;;;;15.32;8.07;;;5.50;43.20;;;;;;5098991;28;20052;-76
2022/03/18 07:41:42;;;;;;;16.80;8.27;;;7.20;39.50;;;;;;5096437;28;20103;-79
2022/03/18 07:44:09;;;;;;;17.00;7.88;;;8.50;37.40;;;;;;5093919;28;20451;-78
2022/03/18 07:46:35;;;;;;;13.90;8.95;;;9.20;35.70;;;;;;5075447;28;20107;-78
2022/03/18 07:49:01;;;;;;;14.55;8.32;;;9.90;34.00;;;;;;5093589;28;20481;-78
2022/03/18 07:51:27;;;;;;;19.70;8.90;;;10.70;33.30;;;;;;5075098;28;20020;-78
2022/03/18 07:53:53;;;;;;;15.68;8.65;;;11.30;32.30;;;;;;5075515;28;20027;-78
2022/03/18 07:56:18;;;;;;;16.77;8.77;;;12.00;31.50;;;;;;5093732;28;20101;-79
2022/03/18 07:58:44;;;;;;;16.20;8.73;;;12.50;29.90;;;;;;5093182;28;20027;-80
2022/03/18 08:01:10;;;;;;;15.13;9.90;;;12.70;29.80;;;;;;5075149;28;20127;-80
2022/03/18 08:03:37;;;;;;;14.55;8.75;;;12.90;29.70;;;;;;5075000;28;20020;-81
2022/03/18 08:06:03;;;;;;;15.15;8.27;;;13.30;29.30;;;;;;5093210;28;20031;-80
2022/03/18 08:08:30;;;;;;;23.67;9.13;;;13.60;28.80;;;;;;5093374;28;20039;-79
2022/03/18 08:10:56;;;;;;;15.52;8.23;;;13.70;28.50;;;;;;5093616;28;20054;-80
2022/03/18 08:13:23;;;;;;;17.02;8.38;;;14.00;28.80;;;;;;5092975;28;20048;-80
2022/03/18 08:15:49;;;;;;;18.60;8.20;;;14.40;28.00;;;;;;5074656;28;20510;-80
2022/03/18 08:18:16;;;;;;;15.23;7.20;;;14.60;27.50;;;;;;5093476;28;20016;-79
2022/03/18 08:20:42;;;;;;;10.80;7.00;;;14.50;27.30;;;;;;5094698;28;20441;-79
2022/03/18 08:23:10;;;;;;;14.40;7.30;;;14.50;27.00;;;;;;5094856;28;20024;-79
2022/03/18 08:25:35;;;;;;;13.82;8.05;;;14.00;27.10;;;;;;5093366;28;20032;-79
2022/03/18 08:28:01;;;;;;;11.65;8.07;;;13.90;27.10;;;;;;5074648;28;20396;-81
2022/03/18 08:30:27;;;;;;;13.50;7.13;;;13.90;27.40;;;;;;5074317;28;20020;-78
2022/03/18 08:32:53;;;;;;;11.85;7.10;;;14.00;27.00;;;;;;5092693;28;20028;-80
2022/03/18 08:35:19;;;;;;;14.00;7.63;;;13.70;26.90;;;;;;5092688;28;20408;-79
2022/03/18 08:37:57;;;;;;;11.50;7.60;;;13.80;27.40;;;;;;5092587;28;20066;-80
2022/03/18 08:40:24;;;;;;;12.43;6.85;;;14.30;27.00;;;;;;5092791;28;20055;-79
2022/03/18 08:42:50;;;;;;;10.02;6.28;;;14.20;26.60;;;;;;5092674;28;20099;-77
2022/03/18 08:45:16;;;;;;;11.05;6.03;;;14.10;26.80;;;;;;5092745;28;20115;-77
2022/03/18 08:47:43;;;;;;;12.23;6.43;;;14.20;26.70;;;;;;5093212;28;20026;-77
2022/03/18 08:50:10;;;;;;;11.23;6.40;;;14.30;26.70;;;;;;5099702;28;20023;-78
2022/03/18 08:52:35;;;;;;;11.27;5.93;;;14.60;26.70;;;;;;5077475;28;20063;-80
2022/03/18 08:55:01;;;;;;;10.35;6.43;;;15.10;26.10;;;;;;5070922;28;20515;-78
2022/03/18 08:57:33;;;;;;;7.30;5.43;;;15.20;26.00;;;;;;5072292;28;20027;-79
2022/03/18 08:59:59;;;;;;;10.27;6.15;;;15.60;25.90;;;;;;5072396;28;20029;-80
2022/03/18 09:02:25;;;;;;;6.05;4.93;;;15.60;25.90;;;;;;5071004;28;20027;-79
2022/03/18 09:04:51;;;;;;;6.88;5.45;;;15.40;25.70;;;;;;5073782;28;20063;-78
2022/03/18 09:07:19;;;;;;;12.18;5.80;;;15.90;25.60;;;;;;5092305;28;20466;-78
2022/03/18 09:09:45;;;;;;;15.88;5.72;;;16.50;25.30;;;;;;5074165;28;20024;-79
2022/03/18 09:12:11;;;;;;;13.05;5.97;;;16.40;25.10;;;;;;5074047;28;20456;-78
2022/03/18 09:14:37;;;;;;;10.18;4.78;;;16.00;25.00;;;;;;5092577;28;20493;-77
2022/03/18 09:17:04;;;;;;;9.27;5.57;;;15.80;25.10;;;;;;5092253;28;20035;-79
2022/03/18 09:19:30;;;;;;;11.05;5.60;;;15.20;25.50;;;;;;5092496;28;20058;-80
2022/03/18 09:21:56;;;;;;;9.15;5.45;;;15.30;25.80;;;;;;5091877;28;20036;-78
2022/03/18 09:24:21;;;;;;;13.00;6.03;;;16.10;25.50;;;;;;5073980;28;20024;-79
2022/03/18 09:26:47;;;;;;;8.15;5.53;;;16.40;25.20;;;;;;5091788;28;20028;-81
2022/03/18 09:29:13;;;;;;;10.75;8.13;;;16.40;25.00;;;;;;5091655;28;20028;-79
2022/03/18 09:31:39;;;;;;;12.27;6.28;;;16.20;24.90;;;;;;5091670;28;20516;-80
2022/03/18 09:34:05;;;;;;;11.48;5.68;;;16.30;24.90;;;;;;5073625;28;20020;-80
2022/03/18 09:36:31;;;;;;;10.45;5.72;;;16.50;25.20;;;;;;5092092;28;20048;-79
2022/03/18 09:38:57;;;;;;;8.70;4.83;;;16.60;24.80;;;;;;5073851;28;20358;-80
2022/03/18 09:41:23;;;;;;;8.32;5.30;;;16.30;24.70;;;;;;5091729;28;20028;-78
2022/03/18 09:43:50;;;;;;;10.18;5.93;;;15.90;25.10;;;;;;5092102;28;20024;-79
2022/03/18 09:46:19;;;;;;;11.52;5.95;;;15.90;24.90;;;;;;5091557;28;20449;-79
2022/03/18 09:48:45;;;;;;;10.13;5.50;;;15.90;25.00;;;;;;5073405;28;20077;-81
2022/03/18 09:51:11;;;;;;;11.52;6.95;;;15.60;25.20;;;;;;5091753;28;20028;-80
2022/03/18 09:53:37;;;;;;;7.88;5.57;;;15.70;25.20;;;;;;5073734;28;20024;-79
2022/03/18 09:56:04;;;;;;;9.43;5.93;;;15.80;25.60;;;;;;5073782;28;20028;-80
2022/03/18 09:58:30;;;;;;;12.50;5.78;;;15.70;25.20;;;;;;5092054;28;20811;-78
2022/03/18 10:00:58;;;;;;;8.88;5.38;;;16.00;25.50;;;;;;5093978;28;20036;-79
2022/03/18 10:03:45;;;;;;;8.50;5.05;;;16.30;25.10;;;;;;5074484;28;20020;-82
2022/03/18 10:06:11;;;;;;;8.43;5.53;;;16.60;25.00;;;;;;5090929;28;20043;-80
2022/03/18 10:08:37;;;;;;;11.50;6.15;;;16.60;25.20;;;;;;5091554;28;20028;-79
2022/03/18 10:11:18;;;;;;;9.68;5.10;;;16.70;24.80;;;;;;5091574;28;20024;-80
2022/03/18 10:13:54;;;;;;;8.73;6.20;;;17.10;24.80;;;;;;5093942;28;20029;-81
2022/03/18 10:16:36;;;;;;;10.38;5.07;;;17.40;24.40;;;;;;5077047;28;20050;-80
2022/03/18 10:19:14;;;;;;;9.80;6.00;;;16.90;24.60;;;;;;5095149;28;20035;-80
2022/03/18 10:21:50;;;;;;;10.00;6.60;;;16.50;24.70;;;;;;5076814;28;20489;-79
2022/03/18 10:24:17;;;;;;;12.38;5.95;;;16.90;25.00;;;;;;5077404;28;20537;-78
2022/03/18 10:26:43;;;;;;;10.55;5.95;;;17.20;24.80;;;;;;5095074;28;20065;-79
2022/03/18 10:29:13;;;;;;;13.65;5.70;;;16.40;24.40;;;;;;5076995;28;20107;-78
2022/03/18 10:31:40;;;;;;;7.55;5.78;;;14.80;25.20;;;;;;5076944;28;20101;-78
2022/03/18 10:37:07;;;;;;;8.13;5.63;;;11.50;27.50;;;;;;5095276;28;20086;-79
2022/03/18 10:39:41;;;;;;;14.00;5.38;;;10.10;28.60;;;;;;5095255;28;20081;-78
2022/03/18 10:42:15;;;;;;;10.27;6.40;;;9.10;29.50;;;;;;5076509;28;20024;-80
2022/03/18 10:44:53;;;;;;;13.20;5.70;;;8.30;30.30;;;;;;5094858;28;20064;-79
2022/03/18 10:47:40;;;;;;;9.45;5.68;;;7.70;31.30;;;;;;5076757;28;20431;-78
2022/03/18 10:50:32;;;;;;;;;;;7.30;31.80;;;;;;5077343;28;20531;-78
2022/03/18 10:53:03;;;;;;;10.30;5.28;;;6.90;31.80;;;;;;5083565;28;20365;-79
2022/03/18 10:55:43;;;;;;;8.70;5.07;;;6.60;33.30;;;;;;5074442;28;20060;-78
2022/03/18 10:58:17;;;;;;;14.65;7.18;;;6.40;33.70;;;;;;5072955;28;20017;-77
2022/03/18 11:00:51;;;;;;;9.85;5.40;;;6.20;34.00;;;;;;5074334;28;20051;-79
2022/03/18 11:03:18;;;;;;;8.10;5.75;;;6.00;34.30;;;;;;5074464;28;20084;-79
2022/03/18 11:05:47;;;;;;;9.95;6.25;;;6.00;34.70;;;;;;5070654;28;20066;-79
2022/03/18 11:08:25;;;;;;;7.95;5.53;;;5.80;34.90;;;;;;5097737;28;20024;-79
2022/03/18 11:11:07;;;;;;;9.95;4.70;;;5.80;35.10;;;;;;5096147;28;20028;-78
2022/03/18 11:14:01;;;;;;;16.23;5.80;;;5.80;35.10;;;;;;5105489;28;20412;-78
2022/03/18 11:16:29;;;;;;;8.13;5.57;;;5.80;35.30;;;;;;5094820;28;20374;-78
2022/03/18 11:18:57;;;;;;;6.95;4.35;;;5.80;35.30;;;;;;5094278;28;20024;-76
2022/03/18 11:21:35;;;;;;;;;;;5.80;35.50;;;;;;5095343;28;20024;-80
2022/03/18 11:24:04;;;;;;;5.85;3.80;;;5.70;35.50;;;;;;5093403;28;19999;-78
2022/03/18 11:26:31;;;;;;;9.70;4.82;;;5.70;35.70;;;;;;5094063;28;20012;-78
2022/03/18 11:29:23;;;;;;;7.50;4.82;;;5.70;35.80;;;;;;5094240;28;20020;-79
2022/03/18 11:32:12;;;;;;;12.65;5.30;;;5.70;35.80;;;;;;5094178;28;20106;-79
2022/03/18 11:34:56;;;;;;;9.75;5.63;;;5.70;36.00;;;;;;5094076;28;20020;-78
2022/03/18 11:37:25;;;;;;;6.53;4.55;;;5.70;36.20;;;;;;5093874;28;20078;-78
2022/03/18 11:39:50;;;;;;;11.05;5.38;;;5.80;36.30;;;;;;5075612;28;20032;-78
2022/03/18 11:42:20;;;;;;;12.38;5.20;;;5.80;36.30;;;;;;5094118;28;20028;-77
2022/03/18 11:44:56;;;;;;;9.30;5.05;;;5.80;36.40;;;;;;5093836;28;20103;-79
2022/03/18 11:47:30;;;;;;;6.18;4.05;;;5.90;36.30;;;;;;5093811;28;20032;-78
2022/03/18 11:49:57;;;;;;;9.90;4.53;;;5.90;36.30;;;;;;5093663;28;20074;-78
2022/03/18 11:52:24;;;;;;;5.28;4.75;;;5.90;36.50;;;;;;5093450;28;20058;-79
2022/03/18 11:54:54;;;;;;;9.23;3.95;;;5.80;36.60;;;;;;5093164;28;20059;-80
2022/03/18 11:57:34;;;;;;;5.90;3.92;;;5.80;36.80;;;;;;5075095;28;20028;-79
2022/03/18 12:00:07;;;;;;;6.15;3.92;;;5.80;36.90;;;;;;5093463;28;20536;-77
2022/03/18 12:02:41;;;;;;;6.30;4.38;;;5.70;36.90;;;;;;5093538;28;20027;-79
2022/03/18 12:05:07;;;;;;;7.25;4.72;;;5.70;37.20;;;;;;5093336;28;20477;-78
2022/03/18 12:07:47;;;;;;;9.60;5.03;;;5.80;37.20;;;;;;5093391;28;20020;-79
2022/03/18 12:10:15;;;;;;;9.82;5.22;;;5.90;37.40;;;;;;5094295;28;20028;-78
2022/03/18 12:12:42;;;;;;;7.38;4.10;;;5.90;37.30;;;;;;5093310;28;20489;-77
2022/03/18 12:15:17;;;;;;;;;;;6.00;37.30;;;;;;5093443;28;20054;-78
2022/03/18 12:17:53;;;;;;;8.52;4.63;;;5.90;37.20;;;;;;5074754;28;20278;-78
2022/03/18 12:20:23;;;;;;;8.43;4.15;;;5.90;37.40;;;;;;5093193;28;20358;-77
2022/03/18 12:22:50;;;;;;;6.18;4.88;;;5.90;37.60;;;;;;5075577;28;20025;-79
2022/03/18 12:25:17;;;;;;;7.07;4.50;;;5.90;37.80;;;;;;5099202;28;20020;-77
2022/03/18 12:27:44;;;;;;;9.52;4.97;;;5.90;37.90;;;;;;5093892;28;20059;-78
2022/03/18 12:30:25;;;;;;;11.77;4.47;;;6.10;37.90;;;;;;5092901;28;20020;-79
2022/03/18 12:32:54;;;;;;;7.88;4.93;;;6.40;37.60;;;;;;5092811;28;20148;-76
2022/03/18 12:35:26;;;;;;;9.10;4.15;;;6.60;37.30;;;;;;5092662;28;20077;-78
2022/03/18 12:38:11;;;;;;;12.15;5.43;;;7.00;37.10;;;;;;5093941;28;20385;-78
2022/03/18 12:40:40;;;;;;;11.77;5.13;;;7.10;36.70;;;;;;5095308;28;20086;-79
2022/03/18 12:43:05;;;;;;;8.10;5.43;;;7.10;36.50;;;;;;5094792;28;20017;-79
2022/03/18 12:45:34;;;;;;;10.38;4.28;;;7.00;36.50;;;;;;5092863;28;20103;-81
2022/03/18 12:48:04;;;;;;;11.77;5.10;;;6.80;36.70;;;;;;5092664;28;20027;-77
2022/03/18 12:50:35;;;;;;;8.40;4.95;;;6.80;36.90;;;;;;5070683;28;20028;-77
2022/03/18 12:53:09;;;;;;;9.73;4.25;;;6.70;37.10;;;;;;5054433;28;20033;-78
2022/03/18 12:55:35;;;;;;;6.65;4.05;;;6.60;37.40;;;;;;5076572;28;20119;-78
2022/03/18 12:58:01;;;;;;;11.43;5.68;;;6.60;37.90;;;;;;5057558;28;20121;-76
2022/03/18 13:00:27;;;;;;;9.90;4.60;;;6.50;38.10;;;;;;5074133;28;20024;-78
2022/03/18 13:02:53;;;;;;;10.25;5.43;;;6.50;38.00;;;;;;5072990;28;20021;-78
2022/03/18 13:05:19;;;;;;;7.03;4.88;;;6.50;37.70;;;;;;5081374;28;20020;-77
2022/03/18 13:07:46;;;;;;;11.73;4.57;;;6.50;37.90;;;;;;5091981;28;20487;-78
2022/03/18 13:10:19;;;;;;;11.63;5.25;;;6.50;38.00;;;;;;5092019;28;20020;-78
2022/03/18 13:12:46;;;;;;;10.45;5.18;;;6.60;37.90;;;;;;5092166;28;20727;-78